KAIZ/AIZ METAR and TAF weather

Enter ICAO airport designator
Station Type Date Time Source
KAIZ METAR 2018/06/25 16:56 UTC NOAA

KAIZ 251656Z AUTO 17006KT 10SM OVC026 28/23 A2994 RMK AO2 SLP129 T02780228


Station Type Date Time Source
KAIZ Decoded METAR 2018/06/25 16:56 UTC NOAA

Kaiser Lake Ozark, Lee C Fine Memorial Airport, MO, United States (KAIZ) 38-06N 092-33W
Jun 25, 2018 - 12:56 PM EDT / 2018.06.25 1656 UTC
Wind: from the S (170 degrees) at 7 MPH (6 KT):0
Visibility: 10 mile(s):0
Sky conditions: overcast
Temperature: 82.0 F (27.8 C)
Dew Point: 73.0 F (22.8 C)
Relative Humidity: 74%
Pressure (altimeter): 29.94 in. Hg (1013 hPa)
ob: KAIZ 251656Z AUTO 17006KT 10SM OVC026 28/23 A2994 RMK AO2 SLP129 T02780228
cycle: 17

Station Type Date Time Source
KAIZ TAF UTC NOAA

Error!


Example: see airport list